createdAt,value
2023-03-11T00:01:41.173Z,10.10
2023-03-11T00:06:44.547Z,8.50
2023-03-11T00:11:49.785Z,10.07
2023-03-11T00:16:53.114Z,10.60
2023-03-11T00:21:56.662Z,8.10
2023-03-11T00:27:01.507Z,8.60
2023-03-11T00:32:05.159Z,9.32
2023-03-11T00:37:08.537Z,8.98
2023-03-11T00:42:13.924Z,10.15
2023-03-11T00:47:17.240Z,10.43
2023-03-11T00:52:20.631Z,11.30
2023-03-11T00:57:29.134Z,11.75
2023-03-11T01:02:32.640Z,9.27
2023-03-11T01:07:36.341Z,11.32
2023-03-11T01:12:42.118Z,8.37
2023-03-11T01:22:49.314Z,6.63
2023-03-11T01:27:54.127Z,5.03
2023-03-11T01:32:58.037Z,4.70
2023-03-11T01:38:01.616Z,3.47
2023-03-11T01:43:27.323Z,2.50
2023-03-11T01:48:31.315Z,2.58
2023-03-11T01:53:35.964Z,2.17
2023-03-11T01:58:45.070Z,1.52
2023-03-11T02:03:49.939Z,1.02
2023-03-11T02:08:55.057Z,1.35
2023-03-11T02:19:16.245Z,1.60
2023-03-11T02:29:29.340Z,1.95
2023-03-11T02:34:35.537Z,2.17
2023-03-11T02:44:54.989Z,1.67
2023-03-11T02:49:58.409Z,1.90
2023-03-11T02:55:03.402Z,2.15
2023-03-11T03:00:15.699Z,2.25
2023-03-11T03:05:25.657Z,2.45
2023-03-11T03:10:29.656Z,2.42
2023-03-11T03:15:35.472Z,3.75
2023-03-11T03:20:38.973Z,2.75
2023-03-11T03:25:43.416Z,3.95
2023-03-11T03:30:48.488Z,2.80
2023-03-11T03:41:02.272Z,2.95
2023-03-11T03:46:07.831Z,3.43
2023-03-11T03:51:17.119Z,2.97
2023-03-11T03:56:39.851Z,2.67
2023-03-11T04:01:45.248Z,2.60
2023-03-11T04:06:49.637Z,2.45
2023-03-11T04:11:55.389Z,3.70
2023-03-11T04:17:00.348Z,2.55
2023-03-11T04:22:05.290Z,3.08
2023-03-11T04:27:10.355Z,2.70
2023-03-11T04:32:17.469Z,3.83
2023-03-11T04:37:22.652Z,2.80
2023-03-11T04:42:27.357Z,1.60
2023-03-11T04:47:33.072Z,1.98
2023-03-11T04:52:37.004Z,2.50
2023-03-11T04:57:40.698Z,3.05
2023-03-11T05:02:46.779Z,2.33
2023-03-11T05:07:51.622Z,1.65
2023-03-11T05:12:55.244Z,2.42
2023-03-11T05:18:03.681Z,2.33
2023-03-11T05:23:07.904Z,2.28
2023-03-11T05:28:13.531Z,2.53
2023-03-11T05:33:24.521Z,2.38
2023-03-11T05:38:29.062Z,2.65
2023-03-11T05:43:32.429Z,3.28
2023-03-11T05:48:37.458Z,2.83
2023-03-11T05:53:48.069Z,3.17
2023-03-11T05:58:57.483Z,3.35
2023-03-11T06:04:04.401Z,3.53
2023-03-11T06:09:12.256Z,3.83
2023-03-11T06:14:17.108Z,3.85
2023-03-11T06:19:25.370Z,3.08
2023-03-11T06:24:28.888Z,4.18
2023-03-11T06:29:32.553Z,3.78
2023-03-11T06:34:37.714Z,4.55
2023-03-11T06:39:42.478Z,4.97
2023-03-11T06:44:49.973Z,6.18
2023-03-11T06:49:55.229Z,4.73
2023-03-11T06:54:58.953Z,5.03
2023-03-11T07:00:07.793Z,4.35
2023-03-11T07:05:14.251Z,5.75
2023-03-11T07:15:21.485Z,4.57
2023-03-11T07:20:26.261Z,5.40
2023-03-11T07:25:29.571Z,4.60
2023-03-11T07:30:34.535Z,4.97
2023-03-11T07:35:39.480Z,6.18
2023-03-11T07:40:43.705Z,5.25
2023-03-11T07:45:47.003Z,5.85
2023-03-11T07:51:00.663Z,6.63
2023-03-11T07:56:05.345Z,6.30
2023-03-11T08:01:11.713Z,5.65
2023-03-11T08:06:18.795Z,5.60
2023-03-11T08:11:23.136Z,6.10
2023-03-11T08:16:27.098Z,6.43
2023-03-11T08:21:32.333Z,5.47
2023-03-11T08:26:36.457Z,6.43
2023-03-11T08:31:39.921Z,5.60
2023-03-11T08:36:45.136Z,4.50
2023-03-11T08:46:51.773Z,5.20
2023-03-11T08:51:56.699Z,5.00
2023-03-11T08:57:03.007Z,5.78
2023-03-11T09:02:06.437Z,5.55
2023-03-11T09:07:13.054Z,6.45
2023-03-11T09:12:16.927Z,5.57
2023-03-11T09:17:21.467Z,5.03
2023-03-11T09:22:27.027Z,5.27
2023-03-11T09:27:30.586Z,5.88
2023-03-11T09:32:34.120Z,5.93
2023-03-11T09:37:38.833Z,5.50
2023-03-11T09:42:48.405Z,5.30
2023-03-11T09:48:11.974Z,6.60
2023-03-11T09:53:29.373Z,5.82
2023-03-11T09:58:39.525Z,6.10
2023-03-11T10:03:44.713Z,6.00
2023-03-11T10:14:08.155Z,6.72
2023-03-11T10:19:21.374Z,6.35
2023-03-11T10:24:42.288Z,5.60
2023-03-11T10:29:53.371Z,6.30
2023-03-11T10:35:04.431Z,7.82
2023-03-11T10:40:23.880Z,6.22
2023-03-11T10:45:33.324Z,6.63
2023-03-11T10:50:36.942Z,5.60
2023-03-11T10:55:48.623Z,5.57
2023-03-11T11:01:04.645Z,5.70
2023-03-11T11:06:20.983Z,7.22
2023-03-11T11:11:25.850Z,7.25
2023-03-11T11:16:29.590Z,6.78
2023-03-11T11:21:35.896Z,5.67
2023-03-11T11:26:40.596Z,6.95
2023-03-11T11:31:46.009Z,5.90
2023-03-11T11:36:50.018Z,6.10
2023-03-11T11:41:55.647Z,6.72
2023-03-11T11:47:06.276Z,7.05
2023-03-11T11:52:15.250Z,5.80
2023-03-11T11:57:22.564Z,5.88
2023-03-11T12:02:43.638Z,6.10
2023-03-11T12:08:06.753Z,6.25
2023-03-11T12:13:24.278Z,5.57
2023-03-11T12:18:32.485Z,5.13
2023-03-11T12:23:47.242Z,5.65
2023-03-11T12:28:57.648Z,5.63
2023-03-11T12:34:04.168Z,4.82
2023-03-11T12:39:19.434Z,6.00
2023-03-11T12:44:26.815Z,5.50
2023-03-11T12:49:31.485Z,4.97
2023-03-11T12:54:37.339Z,5.85
2023-03-11T13:00:18.178Z,4.53
2023-03-11T13:05:27.535Z,5.57
2023-03-11T13:10:38.009Z,6.55
2023-03-11T13:15:43.126Z,4.57
2023-03-11T13:26:29.077Z,4.38
2023-03-11T13:31:48.493Z,4.93
2023-03-11T13:37:06.147Z,4.45
2023-03-11T13:42:21.542Z,4.20
2023-03-11T13:47:27.238Z,3.17
2023-03-11T13:52:34.218Z,4.15
2023-03-11T13:57:38.720Z,4.65
2023-03-11T14:02:47.560Z,4.03
2023-03-11T14:07:51.328Z,3.58
2023-03-11T14:13:16.311Z,2.80
2023-03-11T14:18:29.882Z,2.65
2023-03-11T14:23:36.201Z,3.05
2023-03-11T14:28:45.030Z,2.80
2023-03-11T14:33:57.654Z,2.58
2023-03-11T14:39:00.985Z,2.40
2023-03-11T14:44:04.888Z,2.92
2023-03-11T14:49:16.237Z,3.03
2023-03-11T14:54:24.991Z,2.45
2023-03-11T14:59:33.073Z,2.22
2023-03-11T15:04:44.215Z,2.38
2023-03-11T15:09:48.142Z,2.08
2023-03-11T15:14:52.013Z,1.60
2023-03-11T15:19:57.479Z,1.75
2023-03-11T15:25:04.156Z,1.95
2023-03-11T15:30:19.939Z,1.75
2023-03-11T15:35:26.731Z,1.70
2023-03-11T15:40:44.496Z,1.75
2023-03-11T15:45:49.099Z,1.75
2023-03-11T15:50:55.318Z,2.15
2023-03-11T15:56:07.389Z,1.83
2023-03-11T16:01:11.488Z,1.63
2023-03-11T16:06:16.699Z,2.45
2023-03-11T16:11:20.012Z,1.65
2023-03-11T16:16:23.592Z,1.75
2023-03-11T16:21:34.823Z,1.48
2023-03-11T16:26:38.285Z,1.60
2023-03-11T16:31:41.750Z,1.27
2023-03-11T16:36:46.492Z,2.03
2023-03-11T16:41:49.875Z,0.98
2023-03-11T16:46:53.213Z,1.58
2023-03-11T16:51:57.884Z,1.77
2023-03-11T16:57:01.455Z,1.63
2023-03-11T17:02:05.091Z,1.20
2023-03-11T17:07:10.989Z,1.33
2023-03-11T17:12:16.683Z,1.27
2023-03-11T17:17:21.256Z,1.25
2023-03-11T17:22:26.149Z,1.80
2023-03-11T17:32:36.802Z,6.30
2023-03-11T17:37:42.018Z,5.32
2023-03-11T17:42:46.018Z,6.57
2023-03-11T17:47:49.686Z,5.47
2023-03-11T17:52:56.521Z,6.10
2023-03-11T17:58:00.134Z,2.67
2023-03-11T18:03:03.564Z,3.65
2023-03-11T18:08:08.277Z,3.20
2023-03-11T18:13:11.629Z,3.83
2023-03-11T18:18:15.086Z,3.50
2023-03-11T18:23:19.874Z,4.00
2023-03-11T18:28:23.318Z,3.45
2023-03-11T18:33:27.185Z,3.50
2023-03-11T18:38:32.044Z,2.83
2023-03-11T18:43:35.859Z,2.28
2023-03-11T18:48:39.514Z,2.40
2023-03-11T18:53:44.170Z,2.20
2023-03-11T18:58:47.793Z,2.47
2023-03-11T19:03:52.597Z,3.63
2023-03-11T19:09:00.567Z,3.08
2023-03-11T19:14:03.942Z,2.05
2023-03-11T19:19:08.694Z,3.38
2023-03-11T19:24:14.452Z,1.80
2023-03-11T19:34:22.381Z,1.80
2023-03-11T19:39:27.487Z,1.50
2023-03-11T19:44:30.864Z,1.27
2023-03-11T19:49:34.529Z,0.95
2023-03-11T19:54:39.335Z,1.48
2023-03-11T19:59:42.916Z,2.03
2023-03-11T20:04:46.354Z,1.25
2023-03-11T20:09:51.104Z,1.45
2023-03-11T20:14:54.519Z,1.65
2023-03-11T20:19:58.950Z,1.52
2023-03-11T20:25:04.155Z,2.22
2023-03-11T20:30:08.775Z,1.55
2023-03-11T20:35:12.694Z,1.20
2023-03-11T20:40:19.167Z,1.58
2023-03-11T20:45:22.694Z,1.63
2023-03-11T20:50:26.916Z,2.65
2023-03-11T20:55:31.954Z,1.42
2023-03-11T21:00:35.520Z,1.45
2023-03-11T21:05:40.716Z,1.17
2023-03-11T21:10:45.496Z,0.80
2023-03-11T21:15:48.915Z,1.35
2023-03-11T21:20:52.867Z,1.33
2023-03-11T21:26:01.298Z,1.63
2023-03-11T21:31:06.320Z,0.80
2023-03-11T21:41:17.664Z,0.90
2023-03-11T21:46:23.886Z,0.88
2023-03-11T21:51:28.118Z,1.23
2023-03-11T21:56:32.846Z,1.13
2023-03-11T22:01:36.185Z,1.42
2023-03-11T22:06:40.207Z,1.40
2023-03-11T22:11:44.975Z,1.47
2023-03-11T22:16:48.529Z,1.08
2023-03-11T22:21:51.831Z,1.10
2023-03-11T22:26:56.623Z,0.80
2023-03-11T22:32:00.449Z,0.95
2023-03-11T22:37:03.869Z,0.88
2023-03-11T22:42:08.699Z,1.20
2023-03-11T22:47:12.198Z,1.58
2023-03-11T22:52:16.117Z,0.68
2023-03-11T22:57:20.776Z,1.35
2023-03-11T23:02:24.188Z,1.40
2023-03-11T23:07:28.105Z,1.30
2023-03-11T23:12:32.853Z,0.90
2023-03-11T23:17:36.563Z,1.30
2023-03-11T23:22:41.612Z,1.15
2023-03-11T23:27:47.099Z,1.20
2023-03-11T23:32:51.469Z,3.05
2023-03-11T23:37:54.964Z,1.23
2023-03-11T23:43:00.658Z,2.05
2023-03-11T23:48:04.004Z,2.42
2023-03-11T23:53:07.210Z,0.80
2023-03-11T23:58:12.086Z,0.77
